Time;durP1;ratioP1;P1;durP2;ratioP2;P2;SDS_P1;SDS_P2;PMS_P1;PMS_P2;Temp;Humidity;BMP_temperature;BMP_pressure;BME280_temperature;BME280_humidity;BME280_pressure;Samples;Min_cycle;Max_cycle;Signal;HPM_P1;HPM_P2
2021/12/22 00:01:50;;;;;;;14.43;8.80;;;;;;;0.51;74.98;100694.94;5093490;28;20067;-82
2021/12/22 00:04:16;;;;;;;15.30;8.10;;;;;;;0.48;74.65;100688.94;5093489;28;20039;-80
2021/12/22 00:06:42;;;;;;;15.48;8.38;;;;;;;0.48;74.64;100687.19;5095401;28;20036;-81
2021/12/22 00:09:08;;;;;;;14.75;8.98;;;;;;;0.50;75.04;100689.75;5094979;28;20040;-82
2021/12/22 00:11:34;;;;;;;12.35;7.68;;;;;;;0.43;74.94;100686.44;5110938;28;20035;-81
2021/12/22 00:13:59;;;;;;;12.77;7.55;;;;;;;0.43;74.84;100688.22;5113186;28;20035;-81
2021/12/22 00:16:24;;;;;;;12.48;7.40;;;;;;;0.44;74.77;100679.41;5113687;28;20047;-83
2021/12/22 00:18:50;;;;;;;12.52;7.47;;;;;;;0.46;74.67;100685.47;5112941;28;20034;-82
2021/12/22 00:21:15;;;;;;;11.93;7.05;;;;;;;0.42;74.29;100691.78;5095141;28;20028;-81
2021/12/22 00:23:41;;;;;;;10.48;7.03;;;;;;;0.40;74.85;100689.19;5095501;28;20032;-81
2021/12/22 00:26:07;;;;;;;12.43;7.28;;;;;;;0.42;74.02;100689.16;5111311;28;20035;-81
2021/12/22 00:28:33;;;;;;;13.30;8.50;;;;;;;0.40;74.22;100694.47;5111155;28;20040;-80
2021/12/22 00:30:59;;;;;;;13.90;8.07;;;;;;;0.42;74.11;100690.00;5111621;28;20051;-80
2021/12/22 00:33:27;;;;;;;14.65;7.95;;;;;;;0.44;73.98;100690.81;5110378;28;20044;-81
2021/12/22 00:35:53;;;;;;;17.60;9.57;;;;;;;0.45;74.79;100679.38;5112320;28;20035;-82
2021/12/22 00:38:19;;;;;;;16.80;9.25;;;;;;;0.43;74.17;100682.97;5093702;28;20274;-81
2021/12/22 00:40:46;;;;;;;14.98;8.82;;;;;;;0.45;74.27;100686.41;5110970;28;20036;-81
2021/12/22 00:43:14;;;;;;;14.95;8.90;;;;;;;0.39;74.04;100674.34;5112168;28;20053;-80
2021/12/22 00:45:40;;;;;;;15.60;8.70;;;;;;;0.39;73.75;100670.84;5092825;28;20035;-81
2021/12/22 00:48:07;;;;;;;15.30;9.68;;;;;;;0.28;74.37;100673.88;5093749;28;20032;-82
2021/12/22 00:50:34;;;;;;;17.48;10.10;;;;;;;0.29;73.80;100681.69;5110863;28;20027;-82
2021/12/22 00:52:59;;;;;;;18.23;10.93;;;;;;;0.27;73.78;100669.53;5093284;28;20065;-81
2021/12/22 00:55:25;;;;;;;16.20;9.95;;;;;;;0.25;74.20;100673.97;5110798;28;20099;-81
2021/12/22 00:57:50;;;;;;;14.05;9.48;;;;;;;0.26;74.04;100663.41;5110331;28;20061;-82
2021/12/22 01:00:18;;;;;;;14.95;8.68;;;;;;;0.29;73.58;100665.06;5111161;28;20085;-82
2021/12/22 01:02:44;;;;;;;14.63;8.40;;;;;;;0.29;73.82;100652.78;5110791;28;20051;-82
2021/12/22 01:05:12;;;;;;;11.75;7.70;;;;;;;0.32;74.37;100664.94;5112514;28;20057;-81
2021/12/22 01:07:44;;;;;;;11.80;7.68;;;;;;;0.31;73.94;100661.47;5093114;28;20044;-83
2021/12/22 01:10:11;;;;;;;13.00;7.95;;;;;;;0.34;74.09;100665.75;5094723;28;20039;-81
2021/12/22 01:12:37;;;;;;;14.65;8.57;;;;;;;0.35;73.90;100680.63;5108404;28;20374;-80
2021/12/22 01:15:04;;;;;;;15.38;8.55;;;;;;;0.33;74.16;100677.19;5110692;28;20046;-81
2021/12/22 01:17:37;;;;;;;10.73;7.95;;;;;;;0.33;73.59;100674.56;5110305;28;20050;-82
2021/12/22 01:20:09;;;;;;;12.05;7.70;;;;;;;0.32;74.05;100678.09;5094917;28;20401;-80
2021/12/22 01:25:08;;;;;;;11.82;7.80;;;;;;;0.34;73.46;100693.81;5112079;28;20065;-81
2021/12/22 01:27:38;;;;;;;13.70;7.78;;;;;;;0.35;73.54;100693.78;5093456;28;20040;-81
2021/12/22 01:30:10;;;;;;;13.88;7.38;;;;;;;0.36;73.77;100695.47;5109976;28;20470;-82
2021/12/22 01:32:36;;;;;;;14.77;8.20;;;;;;;0.32;73.18;100696.50;5110553;28;20115;-81
2021/12/22 01:35:02;;;;;;;12.38;7.43;;;;;;;0.29;73.60;100700.13;5110797;28;20062;-81
2021/12/22 01:37:27;;;;;;;13.90;8.20;;;;;;;0.29;73.42;100691.38;5111693;28;20051;-82
2021/12/22 01:39:52;;;;;;;14.55;7.80;;;;;;;0.25;73.47;100692.38;5092832;28;20032;-81
2021/12/22 01:42:18;;;;;;;12.27;7.00;;;;;;;0.19;73.22;100693.47;5093858;28;20489;-82
2021/12/22 01:50:16;;;;;;;13.48;7.28;;;;;;;0.23;72.88;100692.44;5110485;28;20140;-82
2021/12/22 01:52:42;;;;;;;11.98;7.40;;;;;;;0.24;72.63;100688.03;5108652;28;20770;-80
2021/12/22 01:55:35;;;;;;;12.00;6.47;;;;;;;0.15;72.84;100689.22;5110650;28;20051;-80
2021/12/22 01:58:01;;;;;;;12.18;6.50;;;;;;;0.11;72.95;100679.75;5110368;28;20538;-83
2021/12/22 02:00:27;;;;;;;9.43;5.97;;;;;;;0.13;73.25;100690.19;5092713;28;20041;-82
2021/12/22 02:02:55;;;;;;;10.13;6.38;;;;;;;0.11;73.08;100681.50;5110060;28;20036;-81
2021/12/22 02:05:20;;;;;;;8.35;5.78;;;;;;;0.09;72.64;100672.81;5093857;28;20036;-80
2021/12/22 02:07:48;;;;;;;10.93;5.93;;;;;;;0.08;73.33;100669.34;5092521;28;20507;-81
2021/12/22 02:12:59;;;;;;;9.85;5.07;;;;;;;0.12;72.70;100678.81;5110259;28;20093;-82
2021/12/22 02:15:24;;;;;;;9.93;5.97;;;;;;;0.16;72.40;100676.94;5110644;28;20058;-82
2021/12/22 02:17:50;;;;;;;11.32;5.82;;;;;;;0.19;72.99;100676.84;5092723;28;20032;-80
2021/12/22 02:20:15;;;;;;;8.60;5.30;;;;;;;0.22;73.41;100674.94;5091402;28;20055;-82
2021/12/22 02:22:43;;;;;;;7.55;4.78;;;;;;;0.18;72.45;100681.22;5091383;28;20115;-80
2021/12/22 02:25:16;;;;;;;6.13;4.38;;;;;;;0.12;72.86;100677.97;5110235;28;20055;-81
2021/12/22 02:27:48;;;;;;;9.40;4.82;;;;;;;0.07;72.04;100674.63;5092421;28;20061;-82
2021/12/22 02:30:21;;;;;;;8.40;5.10;;;;;;;0.03;72.94;100667.78;5093510;28;20028;-82
2021/12/22 02:35:40;;;;;;;10.85;5.15;;;;;;;0.01;72.42;100669.59;5113997;28;20099;-81
2021/12/22 02:38:15;;;;;;;9.43;5.60;;;;;;;0.01;72.71;100666.97;5114078;28;20040;-81
2021/12/22 02:40:45;;;;;;;10.68;5.70;;;;;;;0.03;72.15;100667.78;5114548;28;20028;-83
2021/12/22 02:43:10;;;;;;;10.60;5.38;;;;;;;0.09;72.86;100673.69;5113078;28;20036;-80
2021/12/22 02:45:39;;;;;;;9.93;5.15;;;;;;;0.13;72.78;100674.44;5112623;28;20040;-82
2021/12/22 02:48:05;;;;;;;10.90;6.13;;;;;;;0.06;72.61;100659.78;5114045;28;20039;-81
2021/12/22 02:50:32;;;;;;;7.57;4.78;;;;;;;0.06;72.43;100663.28;5114798;28;20280;-82
2021/12/22 02:53:15;;;;;;;9.48;6.10;;;;;;;0.09;72.54;100670.19;5114419;27;20046;-80
2021/12/22 02:55:51;;;;;;;10.50;5.82;;;;;;;0.08;72.41;100676.34;5114995;28;20568;-80
2021/12/22 03:03:55;;;;;;;10.93;6.53;;;;;;;-0.02;72.12;100676.66;5111898;28;20047;-82
2021/12/22 03:08:52;;;;;;;10.50;5.75;;;;;;;-0.05;72.08;100668.03;5114243;28;20047;-81
2021/12/22 03:11:18;;;;;;;10.15;6.07;;;;;;;-0.08;71.98;100662.88;5113388;28;20035;-81
2021/12/22 03:13:43;;;;;;;11.32;6.20;;;;;;;-0.09;72.05;100658.53;5113021;28;20079;-81
2021/12/22 03:16:08;;;;;;;10.60;5.85;;;;;;;-0.04;72.36;100665.34;5095989;28;20063;-81
2021/12/22 03:18:34;;;;;;;10.82;6.50;;;;;;;0.02;71.99;100671.31;5111874;28;20067;-80
2021/12/22 03:21:12;;;;;;;12.35;6.10;;;;;;;0.03;72.57;100671.25;5095329;28;20031;-82
2021/12/22 03:23:38;;;;;;;8.57;5.30;;;;;;;0.04;72.09;100669.50;5113784;28;20040;-82
2021/12/22 03:26:03;;;;;;;14.55;5.82;;;;;;;0.07;72.30;100666.75;5094580;28;20036;-81
2021/12/22 03:28:30;;;;;;;9.68;5.55;;;;;;;0.05;71.66;100666.81;5095445;28;20946;-81
2021/12/22 03:30:58;;;;;;;9.55;6.00;;;;;;;-0.01;71.49;100662.59;5114064;28;20055;-82
2021/12/22 03:33:23;;;;;;;8.82;5.30;;;;;;;0.03;71.42;100673.91;5094565;28;20057;-82
2021/12/22 03:35:48;;;;;;;7.93;5.35;;;;;;;0.05;71.18;100664.19;5096010;28;20035;-83
2021/12/22 03:38:14;;;;;;;10.02;4.97;;;;;;;0.06;71.63;100665.03;5111838;28;20043;-80
2021/12/22 03:40:39;;;;;;;7.65;5.07;;;;;;;0.03;71.77;100657.25;5095418;28;20028;-82
2021/12/22 03:43:05;;;;;;;8.07;4.35;;;;;;;-0.02;71.99;100662.66;5112456;28;20096;-81
2021/12/22 03:45:30;;;;;;;5.60;3.95;;;;;;;-0.02;71.49;100660.88;5112197;28;20091;-81
2021/12/22 03:47:55;;;;;;;9.57;5.18;;;;;;;0.02;71.48;100658.19;5095085;28;20043;-81
2021/12/22 03:50:21;;;;;;;8.02;4.55;;;;;;;-0.01;71.52;100648.59;5113397;28;20027;-82
2021/12/22 03:52:47;;;;;;;7.47;4.22;;;;;;;0.02;70.81;100650.28;5095114;28;20038;-83
2021/12/22 03:55:13;;;;;;;7.93;4.95;;;;;;;0.01;71.26;100645.94;5095249;28;20032;-81
2021/12/22 03:57:38;;;;;;;7.13;3.95;;;;;;;-0.03;71.26;100651.28;5096586;28;20092;-83
2021/12/22 04:00:07;;;;;;;6.57;4.00;;;;;;;-0.08;70.89;100655.84;5110836;28;20050;-82
2021/12/22 04:02:33;;;;;;;7.03;4.70;;;;;;;-0.10;71.21;100662.91;5112400;28;20028;-81
2021/12/22 04:04:58;;;;;;;5.80;3.90;;;;;;;-0.04;71.53;100669.72;5095861;28;20040;-80
2021/12/22 04:07:23;;;;;;;6.90;4.30;;;;;;;0.01;71.60;100669.59;5113109;28;20035;-81
2021/12/22 04:09:49;;;;;;;8.23;5.53;;;;;;;-0.05;71.49;100674.13;5110609;28;20170;-82
2021/12/22 04:12:14;;;;;;;11.07;6.13;;;;;;;-0.09;72.08;100677.78;5112190;28;20055;-82
2021/12/22 04:14:39;;;;;;;9.48;5.60;;;;;;;-0.04;71.39;100675.84;5096168;28;20089;-80
2021/12/22 04:17:05;;;;;;;8.75;5.38;;;;;;;0.01;71.33;100680.13;5112181;28;20043;-82
2021/12/22 04:19:30;;;;;;;9.52;5.20;;;;;;;0.01;71.74;100675.72;5094947;28;20041;-80
2021/12/22 04:21:57;;;;;;;8.02;4.80;;;;;;;-0.08;71.45;100679.50;5094562;28;20035;-82
2021/12/22 04:24:22;;;;;;;8.07;4.97;;;;;;;-0.08;71.35;100676.00;5112022;28;20456;-80
2021/12/22 04:26:48;;;;;;;5.78;4.18;;;;;;;-0.10;70.49;100675.22;5111853;28;20063;-81
2021/12/22 04:29:14;;;;;;;7.50;4.20;;;;;;;-0.15;71.33;100677.13;5094360;28;20042;-81
2021/12/22 04:31:39;;;;;;;6.25;3.70;;;;;;;-0.20;71.31;100674.66;5111106;28;20031;-80
2021/12/22 04:34:08;;;;;;;5.88;3.88;;;;;;;-0.12;71.52;100682.28;5110995;28;20042;-81
2021/12/22 04:36:35;;;;;;;6.03;4.40;;;;;;;-0.12;71.55;100683.16;5094924;28;20456;-80
2021/12/22 04:39:01;;;;;;;6.63;4.38;;;;;;;-0.09;70.89;100690.06;5111828;28;20092;-83
2021/12/22 04:41:27;;;;;;;6.55;4.35;;;;;;;-0.14;70.92;100684.09;5111466;28;20529;-81
2021/12/22 04:43:53;;;;;;;7.50;4.32;;;;;;;-0.13;70.90;100683.19;5093114;28;20086;-81
2021/12/22 04:46:20;;;;;;;8.77;3.95;;;;;;;-0.17;70.75;100689.47;5093256;28;20036;-82
2021/12/22 04:48:45;;;;;;;8.27;4.10;;;;;;;-0.23;70.92;100672.16;5108900;28;20024;-81
2021/12/22 04:51:23;;;;;;;7.70;3.97;;;;;;;-0.22;71.21;100671.22;5111435;28;20067;-82
2021/12/22 04:53:57;;;;;;;6.90;3.50;;;;;;;-0.27;71.24;100665.28;5111747;28;20102;-81
2021/12/22 04:56:22;;;;;;;5.40;3.33;;;;;;;-0.23;70.88;100666.03;5110048;28;20547;-80
2021/12/22 04:58:48;;;;;;;6.18;3.38;;;;;;;-0.23;71.03;100666.03;5094051;28;20103;-81
2021/12/22 05:01:13;;;;;;;4.28;3.03;;;;;;;-0.29;71.27;100672.34;5091327;28;20058;-81
2021/12/22 05:03:41;;;;;;;5.60;3.45;;;;;;;-0.26;71.15;100668.75;5110041;28;20569;-80
2021/12/22 05:06:07;;;;;;;7.82;3.60;;;;;;;-0.24;70.86;100673.06;5092413;28;20088;-80
2021/12/22 05:08:32;;;;;;;6.53;3.47;;;;;;;-0.27;70.89;100675.78;5111561;28;20118;-82
2021/12/22 05:10:58;;;;;;;6.57;3.90;;;;;;;-0.27;71.02;100675.78;5094521;28;20027;-81
2021/12/22 05:13:23;;;;;;;4.57;3.20;;;;;;;-0.27;71.09;100667.91;5110655;28;20343;-81
2021/12/22 05:15:48;;;;;;;6.60;4.28;;;;;;;-0.25;71.10;100665.22;5092454;28;20040;-81
2021/12/22 05:18:22;;;;;;;5.28;3.30;;;;;;;-0.23;71.71;100671.28;5092693;28;20199;-81
2021/12/22 05:20:49;;;;;;;4.57;3.00;;;;;;;-0.25;71.40;100666.09;5109835;28;20066;-81
2021/12/22 05:23:19;;;;;;;5.40;3.17;;;;;;;-0.25;70.72;100667.84;5110145;28;20038;-81
2021/12/22 05:25:44;;;;;;;5.07;3.17;;;;;;;-0.25;71.02;100673.97;5109071;28;20062;-82
2021/12/22 05:28:10;;;;;;;5.22;3.13;;;;;;;-0.28;71.01;100671.44;5110959;28;20477;-81
2021/12/22 05:30:36;;;;;;;5.32;3.28;;;;;;;-0.26;70.97;100668.75;5110520;28;20090;-82
2021/12/22 05:33:01;;;;;;;7.00;3.50;;;;;;;-0.23;71.32;100660.78;5091917;28;20035;-83
2021/12/22 05:35:26;;;;;;;6.57;3.38;;;;;;;-0.24;70.82;100659.06;5110568;28;20119;-82
2021/12/22 05:37:52;;;;;;;4.43;3.25;;;;;;;-0.22;71.06;100660.72;5093151;28;20046;-81
2021/12/22 05:40:17;;;;;;;4.07;3.08;;;;;;;-0.23;70.80;100661.63;5092838;28;20036;-80
2021/12/22 05:42:43;;;;;;;4.80;3.28;;;;;;;-0.21;71.56;100656.31;5108336;28;20039;-83
2021/12/22 05:45:09;;;;;;;7.60;3.78;;;;;;;-0.22;70.74;100651.97;5091944;28;20060;-82
2021/12/22 05:47:34;;;;;;;6.63;5.22;;;;;;;-0.26;71.00;100650.38;5092147;28;20100;-81
2021/12/22 05:50:02;;;;;;;8.52;4.95;;;;;;;-0.29;71.19;100646.09;5089972;28;20043;-81
2021/12/22 05:52:27;;;;;;;8.63;4.10;;;;;;;-0.28;71.48;100650.44;5092281;28;20865;-81
2021/12/22 05:54:53;;;;;;;6.32;3.78;;;;;;;-0.30;71.25;100654.88;5093037;28;20036;-81
2021/12/22 05:57:18;;;;;;;6.22;3.80;;;;;;;-0.26;71.06;100655.63;5092598;28;20034;-82
2021/12/22 05:59:43;;;;;;;7.28;4.00;;;;;;;-0.29;71.07;100651.34;5108912;28;20618;-82
2021/12/22 06:02:09;;;;;;;6.10;3.75;;;;;;;-0.26;71.14;100650.38;5092065;28;20232;-82
2021/12/22 06:04:34;;;;;;;5.88;4.28;;;;;;;-0.29;71.19;100642.59;5110868;28;20062;-82
2021/12/22 06:06:59;;;;;;;6.65;4.07;;;;;;;-0.35;70.80;100638.41;5109562;28;20032;-81
2021/12/22 06:09:25;;;;;;;11.00;4.75;;;;;;;-0.29;71.53;100639.97;5109399;28;20028;-82
2021/12/22 06:11:50;;;;;;;7.15;4.53;;;;;;;-0.32;71.67;100644.41;5092126;28;20115;-81
2021/12/22 06:14:15;;;;;;;6.28;3.78;;;;;;;-0.29;71.30;100638.19;5108922;28;20535;-82
2021/12/22 06:16:41;;;;;;;6.00;3.15;;;;;;;-0.32;71.86;100641.78;5090412;28;20032;-86
2021/12/22 06:19:09;;;;;;;8.43;4.20;;;;;;;-0.36;71.83;100634.06;5094020;28;20028;-82
2021/12/22 06:21:34;;;;;;;6.38;3.33;;;;;;;-0.36;71.19;100631.44;5090806;28;20109;-82
2021/12/22 06:24:00;;;;;;;8.35;3.10;;;;;;;-0.37;71.66;100630.59;5110003;28;20473;-82
2021/12/22 06:26:25;;;;;;;5.93;3.30;;;;;;;-0.33;70.90;100619.06;5109098;28;20100;-81
2021/12/22 06:28:50;;;;;;;4.63;3.00;;;;;;;-0.27;72.33;100619.75;5091770;28;21394;-82
2021/12/22 06:31:17;;;;;;;4.28;2.60;;;;;;;-0.27;71.38;100628.50;5110425;28;20039;-82
2021/12/22 06:33:42;;;;;;;6.65;2.70;;;;;;;-0.21;71.49;100619.53;5109442;28;20590;-81
2021/12/22 06:36:07;;;;;;;5.38;3.00;;;;;;;-0.24;71.56;100623.13;5091482;28;20028;-82
2021/12/22 06:38:33;;;;;;;6.47;2.75;;;;;;;-0.24;71.08;100631.00;5107351;28;20810;-81
2021/12/22 06:40:59;;;;;;;3.70;2.38;;;;;;;-0.23;71.62;100630.09;5108629;28;20024;-81
2021/12/22 06:43:25;;;;;;;3.80;2.45;;;;;;;-0.24;71.85;100636.28;5090444;28;20032;-82
2021/12/22 06:45:50;;;;;;;4.20;2.47;;;;;;;-0.21;71.08;100636.16;5090831;28;20058;-83
2021/12/22 06:48:15;;;;;;;5.20;2.95;;;;;;;-0.22;71.25;100637.06;5108191;28;20043;-81
2021/12/22 06:50:41;;;;;;;5.70;3.50;;;;;;;-0.19;71.62;100630.84;5108191;28;20036;-83
2021/12/22 06:53:06;;;;;;;4.10;2.70;;;;;;;-0.20;71.68;100622.09;5092521;28;20028;-82
2021/12/22 06:55:31;;;;;;;6.05;2.90;;;;;;;-0.18;71.70;100627.31;5109674;28;20036;-83
2021/12/22 06:57:58;;;;;;;5.30;2.70;;;;;;;-0.23;71.52;100627.47;5090752;28;20242;-82
2021/12/22 07:00:24;;;;;;;4.78;2.78;;;;;;;-0.23;71.56;100627.47;5107621;28;20039;-82
2021/12/22 07:02:49;;;;;;;5.35;2.67;;;;;;;-0.20;71.58;100623.88;5091240;28;20038;-83
2021/12/22 07:05:15;;;;;;;3.03;2.38;;;;;;;-0.23;71.77;100627.47;5109890;28;20615;-82
2021/12/22 07:07:40;;;;;;;6.90;2.65;;;;;;;-0.23;71.39;100624.00;5109774;28;20098;-84
2021/12/22 07:10:08;;;;;;;6.63;2.90;;;;;;;-0.26;71.44;100619.69;5091643;28;20032;-82
2021/12/22 07:12:34;;;;;;;5.25;2.40;;;;;;;-0.28;71.76;100626.78;5092325;28;20069;-82
2021/12/22 07:15:02;;;;;;;3.65;2.40;;;;;;;-0.29;71.89;100617.19;5106199;28;20036;-82
2021/12/22 07:17:27;;;;;;;4.80;2.55;;;;;;;-0.34;71.59;100621.75;5107197;28;20128;-83
2021/12/22 07:19:53;;;;;;;4.30;2.63;;;;;;;-0.34;72.00;100612.09;5109764;28;20052;-82
2021/12/22 07:22:18;;;;;;;3.65;2.58;;;;;;;-0.38;71.37;100618.38;5108414;28;20031;-82
2021/12/22 07:24:43;;;;;;;5.07;3.00;;;;;;;-0.36;71.17;100606.03;5110436;28;20038;-82
2021/12/22 07:27:09;;;;;;;4.18;2.58;;;;;;;-0.31;71.47;100611.13;5094284;28;20458;-82
2021/12/22 07:29:34;;;;;;;6.57;3.53;;;;;;;-0.27;71.19;100615.34;5094442;28;20032;-82
2021/12/22 07:31:59;;;;;;;5.78;3.05;;;;;;;-0.22;71.50;100618.69;5093604;28;20035;-82
2021/12/22 07:34:29;;;;;;;5.47;2.25;;;;;;;-0.18;71.46;100620.28;5093910;28;20039;-82
2021/12/22 07:37:00;;;;;;;4.78;2.60;;;;;;;-0.17;71.27;100622.00;5092770;28;20036;-82
2021/12/22 07:39:25;;;;;;;4.53;2.67;;;;;;;-0.11;71.71;100621.78;5091579;28;20052;-82
2021/12/22 07:41:51;;;;;;;3.65;2.50;;;;;;;-0.12;71.27;100620.06;5092418;28;20036;-82
2021/12/22 07:44:16;;;;;;;4.38;2.42;;;;;;;-0.11;71.38;100627.03;5112161;28;20020;-83
2021/12/22 07:46:42;;;;;;;3.22;2.00;;;;;;;-0.13;71.50;100625.38;5109670;28;20097;-82
2021/12/22 07:49:07;;;;;;;3.30;2.22;;;;;;;-0.13;71.68;100639.38;5093586;28;20031;-83
2021/12/22 07:51:32;;;;;;;6.13;2.40;;;;;;;-0.11;71.29;100641.94;5094285;28;20088;-82
2021/12/22 07:53:59;;;;;;;3.75;2.47;;;;;;;-0.11;72.10;100637.56;5093799;28;20047;-82
2021/12/22 07:56:24;;;;;;;5.10;3.67;;;;;;;-0.05;71.97;100631.22;5096095;28;20123;-82
2021/12/22 07:58:51;;;;;;;9.00;4.10;;;;;;;-0.07;71.38;100633.91;5094940;28;20071;-81
2021/12/22 08:01:17;;;;;;;7.07;3.25;;;;;;;-0.09;71.89;100640.13;5112284;28;20034;-83
2021/12/22 08:03:42;;;;;;;5.07;2.83;;;;;;;-0.10;71.97;100627.91;5093176;28;20035;-81
2021/12/22 08:06:07;;;;;;;5.18;3.00;;;;;;;-0.12;71.27;100627.09;5095268;28;20374;-83
2021/12/22 08:08:33;;;;;;;3.70;2.58;;;;;;;-0.10;72.09;100628.75;5113436;28;20081;-82
2021/12/22 08:10:58;;;;;;;3.75;2.17;;;;;;;-0.09;71.69;100621.72;5111365;28;20050;-82
2021/12/22 08:13:23;;;;;;;5.63;2.80;;;;;;;-0.08;71.70;100623.44;5094760;28;20059;-82
2021/12/22 08:15:49;;;;;;;4.90;2.72;;;;;;;-0.06;71.62;100633.00;5093437;28;20036;-83
2021/12/22 08:18:14;;;;;;;4.68;2.72;;;;;;;-0.09;71.60;100629.63;5111069;28;20040;-83
2021/12/22 08:20:39;;;;;;;5.65;3.00;;;;;;;-0.11;71.01;100634.06;5111546;28;20065;-82
2021/12/22 08:23:11;;;;;;;4.07;2.80;;;;;;;-0.12;71.34;100622.69;5090783;28;20138;-83
2021/12/22 08:25:39;;;;;;;7.07;3.05;;;;;;;-0.13;71.71;100623.59;5093504;28;20065;-84
2021/12/22 08:28:05;;;;;;;4.80;3.45;;;;;;;-0.08;71.32;100631.34;5092408;28;20033;-83
2021/12/22 08:30:31;;;;;;;4.25;2.85;;;;;;;-0.09;71.87;100629.63;5110899;28;20072;-83
2021/12/22 08:32:59;;;;;;;4.57;2.75;;;;;;;-0.08;71.53;100624.31;5093628;28;20039;-83
2021/12/22 08:35:26;;;;;;;6.28;3.35;;;;;;;-0.07;72.02;100643.56;5110971;28;20036;-83
2021/12/22 08:40:36;;;;;;;5.60;3.45;;;;;;;-0.05;72.39;100616.31;5111491;28;20053;-84
2021/12/22 08:43:01;;;;;;;5.82;3.35;;;;;;;-0.02;72.44;100617.97;5092167;28;20115;-83
2021/12/22 08:45:26;;;;;;;7.00;3.30;;;;;;;0.03;72.85;100621.31;5110623;28;20053;-81
2021/12/22 08:47:52;;;;;;;6.57;3.63;;;;;;;0.03;72.91;100612.56;5094237;28;21261;-83
2021/12/22 08:50:18;;;;;;;6.28;3.75;;;;;;;0.04;73.06;100615.16;5092654;28;20131;-83
2021/12/22 08:52:44;;;;;;;5.82;3.70;;;;;;;0.08;72.70;100613.25;5111098;28;20028;-84
2021/12/22 08:55:09;;;;;;;6.22;3.40;;;;;;;0.10;73.10;100608.81;5094103;28;20063;-83
2021/12/22 08:57:35;;;;;;;4.45;3.30;;;;;;;0.13;72.92;100606.06;5108066;28;20035;-83
2021/12/22 09:00:11;;;;;;;6.50;3.25;;;;;;;0.13;73.64;100612.19;5075871;28;20058;-85
2021/12/22 09:02:38;;;;;;;6.75;4.45;;;;;;;0.12;73.46;100606.97;5087348;28;20040;-83
2021/12/22 09:05:05;;;;;;;6.60;4.45;;;;;;;0.11;73.22;100611.38;5091439;28;20576;-84
2021/12/22 09:07:30;;;;;;;8.05;4.93;;;;;;;0.05;73.74;100608.13;5108932;28;20118;-83
2021/12/22 09:09:56;;;;;;;7.90;3.50;;;;;;;0.03;74.06;100602.91;5091435;28;20512;-82
2021/12/22 09:12:22;;;;;;;4.80;3.30;;;;;;;0.17;73.68;100608.53;5107652;28;20047;-82
2021/12/22 09:14:48;;;;;;;4.60;3.13;;;;;;;0.20;74.52;100603.16;5110049;28;20051;-83
2021/12/22 09:17:13;;;;;;;4.65;3.47;;;;;;;0.25;74.51;100608.25;5091798;28;20049;-85
2021/12/22 09:19:38;;;;;;;7.47;3.55;;;;;;;0.23;73.95;100610.91;5091033;28;20036;-83
2021/12/22 09:22:04;;;;;;;8.35;4.40;;;;;;;0.27;73.58;100617.78;5108885;28;20066;-84
2021/12/22 09:24:30;;;;;;;7.35;4.38;;;;;;;0.30;74.16;100612.41;5094051;28;20035;-82
2021/12/22 09:26:55;;;;;;;9.30;4.57;;;;;;;0.29;74.07;100621.22;5092684;28;20036;-85
2021/12/22 09:29:24;;;;;;;7.57;5.00;;;;;;;0.32;74.35;100617.63;5108363;28;20085;-83
2021/12/22 09:31:49;;;;;;;7.63;4.93;;;;;;;0.22;74.80;100610.97;5107603;28;20066;-82
2021/12/22 09:34:15;;;;;;;8.10;4.72;;;;;;;0.30;75.18;100615.03;5109850;28;20039;-82
2021/12/22 09:36:43;;;;;;;11.00;5.55;;;;;;;0.38;75.48;100619.16;5092475;28;20374;-82
2021/12/22 09:39:08;;;;;;;11.35;5.45;;;;;;;0.35;75.06;100627.16;5110577;28;20044;-82
2021/12/22 09:41:34;;;;;;;10.40;5.90;;;;;;;0.40;75.13;100622.59;5091475;28;20508;-81
2021/12/22 09:43:59;;;;;;;10.07;5.88;;;;;;;0.41;75.07;100619.91;5109928;28;20024;-81
2021/12/22 09:46:25;;;;;;;12.40;6.45;;;;;;;0.43;75.12;100617.19;5093898;28;20043;-81
2021/12/22 09:49:58;;;;;;;;;;;;;;;;;;;;;
2021/12/22 09:54:42;;;;;;;7.63;4.65;;;;;;;0.50;75.54;100613.47;5053850;28;20469;-84
2021/12/22 09:57:09;;;;;;;9.10;4.40;;;;;;;0.47;76.29;100600.38;5091781;28;20055;-84
2021/12/22 09:59:35;;;;;;;10.18;4.53;;;;;;;0.47;75.71;100603.88;5107665;28;20039;-81
2021/12/22 10:02:00;;;;;;;9.13;4.05;;;;;;;0.52;76.47;100598.47;5090348;28;20036;-82
2021/12/22 10:04:27;;;;;;;7.55;3.88;;;;;;;0.54;75.88;100601.91;5089044;28;20032;-82
2021/12/22 10:06:53;;;;;;;5.38;3.90;;;;;;;0.51;75.87;100600.25;5092959;28;20081;-82
2021/12/22 10:09:22;;;;;;;8.60;3.90;;;;;;;0.54;75.88;100602.75;5089979;28;20035;-81
2021/12/22 10:11:48;;;;;;;6.05;3.70;;;;;;;0.58;76.10;100595.59;5091017;28;20062;-83
2021/12/22 10:14:23;;;;;;;6.50;4.18;;;;;;;0.60;76.47;100606.91;5094040;28;20027;-82
2021/12/22 10:16:51;;;;;;;10.13;5.18;;;;;;;0.59;76.29;100592.91;5109737;28;20032;-80
2021/12/22 10:19:17;;;;;;;11.20;5.83;;;;;;;0.66;77.13;100595.31;5108931;28;20099;-81
2021/12/22 10:22:01;;;;;;;10.27;5.13;;;;;;;0.63;77.73;100594.50;5110030;28;20530;-82
2021/12/22 10:24:35;;;;;;;7.15;4.55;;;;;;;0.67;77.34;100592.59;5092513;28;20027;-83
2021/12/22 10:27:02;;;;;;;6.93;4.10;;;;;;;0.69;77.39;100588.13;5093245;28;20039;-83
2021/12/22 10:29:32;;;;;;;7.20;4.20;;;;;;;0.71;77.34;100585.44;5092516;28;20042;-82
2021/12/22 10:32:12;;;;;;;10.95;7.93;;;;;;;0.71;76.94;100588.09;5110393;28;20032;-82
2021/12/22 10:34:58;;;;;;;8.63;5.47;;;;;;;0.73;76.04;100580.97;5091073;28;20107;-81
2021/12/22 10:37:36;;;;;;;9.98;4.60;;;;;;;0.76;76.48;100579.09;5108175;28;20036;-83
2021/12/22 10:40:30;;;;;;;6.75;4.40;;;;;;;0.79;76.22;100570.22;5107426;28;20073;-82
2021/12/22 10:42:57;;;;;;;6.82;4.00;;;;;;;0.81;76.44;100561.34;5091178;28;20036;-82
2021/12/22 10:45:25;;;;;;;5.47;3.90;;;;;;;0.84;76.63;100557.72;5091590;28;20028;-82
2021/12/22 10:50:41;;;;;;;8.15;4.78;;;;;;;0.86;77.44;100563.78;5107138;28;20073;-81
2021/12/22 10:53:08;;;;;;;9.98;5.47;;;;;;;0.88;77.79;100551.41;5108416;28;20055;-83
2021/12/22 10:55:41;;;;;;;8.52;5.88;;;;;;;0.93;77.59;100554.72;5094503;28;20032;-83
2021/12/22 10:58:22;;;;;;;12.98;6.25;;;;;;;0.95;77.34;100545.00;5096693;28;20028;-82
2021/12/22 11:01:01;;;;;;;10.00;6.43;;;;;;;1.00;77.87;100556.19;5097869;28;20063;-81
2021/12/22 11:03:40;;;;;;;9.95;6.40;;;;;;;1.00;77.65;100540.41;5111746;28;20047;-83
2021/12/22 11:06:17;;;;;;;11.48;6.82;;;;;;;1.02;78.59;100542.97;5114129;28;20036;-80
2021/12/22 11:09:03;;;;;;;9.10;6.25;;;;;;;1.01;78.53;100543.91;5114221;28;20064;-82
2021/12/22 11:11:31;;;;;;;7.97;5.70;;;;;;;1.04;78.75;100542.00;5096866;28;20103;-83
2021/12/22 11:14:03;;;;;;;7.93;5.50;;;;;;;1.09;79.53;100544.44;5110998;28;21272;-81
2021/12/22 11:16:29;;;;;;;9.80;5.82;;;;;;;1.10;79.74;100533.84;5111968;28;20052;-81
2021/12/22 11:18:54;;;;;;;9.48;5.93;;;;;;;1.11;79.88;100534.69;5113986;28;20107;-81
2021/12/22 11:21:30;;;;;;;8.75;5.88;;;;;;;1.12;79.96;100529.34;5112719;28;20040;-82
2021/12/22 11:23:56;;;;;;;10.25;5.05;;;;;;;1.12;79.54;100526.72;5096967;28;20043;-80
2021/12/22 11:26:21;;;;;;;8.50;4.82;;;;;;;1.13;79.59;100530.22;5111991;28;20034;-83
2021/12/22 11:28:47;;;;;;;6.15;4.40;;;;;;;1.14;79.25;100522.25;5113114;28;20096;-81
2021/12/22 11:31:13;;;;;;;5.82;3.72;;;;;;;1.15;78.34;100513.44;5094707;28;20126;-82
2021/12/22 11:33:39;;;;;;;7.90;3.78;;;;;;;1.15;77.94;100509.94;5112808;28;20133;-83
2021/12/22 11:36:07;;;;;;;5.78;3.47;;;;;;;1.18;77.52;100507.16;5111910;28;20081;-83
2021/12/22 11:38:33;;;;;;;6.18;3.17;;;;;;;1.18;77.58;100502.75;5110507;28;20036;-83
2021/12/22 11:41:10;;;;;;;7.15;3.30;;;;;;;1.19;76.67;100503.63;5093148;28;20126;-82
2021/12/22 11:43:40;;;;;;;6.20;3.20;;;;;;;1.22;76.56;100501.72;5111581;28;20031;-81
2021/12/22 11:46:06;;;;;;;5.63;3.60;;;;;;;1.28;76.13;100495.31;5093612;28;20065;-80
2021/12/22 11:48:33;;;;;;;7.88;3.88;;;;;;;1.24;76.24;100501.63;5107774;28;20051;-80
2021/12/22 11:50:59;;;;;;;7.68;4.05;;;;;;;1.24;75.86;100505.13;5093777;28;20050;-82
2021/12/22 11:53:25;;;;;;;8.65;4.22;;;;;;;1.30;74.84;100495.25;5093002;28;20036;-83
2021/12/22 11:55:52;;;;;;;8.10;4.63;;;;;;;1.32;74.46;100499.53;5093543;28;20069;-82
2021/12/22 11:58:33;;;;;;;7.03;4.35;;;;;;;1.35;74.08;100495.91;5093228;28;20035;-83
2021/12/22 12:01:11;;;;;;;11.30;4.97;;;;;;;1.38;73.61;100491.34;5110885;28;20028;-83